Terminal Aerodrome Forecast
Issued by NWS Atlanta, GA

Home | Current Version | Previous Version | Text Only | Print | Product List | Glossary On
Versions: 1 2 3 4 5 6 7 8 9 10 11 12 13 14 15 16 17 18 19 20 21 22 23 24 25 26 27 28 29 30 31 32 33 34 35
973
FTUS42 KFFC 110336 AAB
TAFATL
TAF AMD
KATL 110336Z 1104/1206 30006KT P6SM BKN050 OVC090
     FM110600 27004KT P6SM SCT050 BKN100
     FM111500 27006KT P6SM SCT050
     FM120000 32005KT P6SM BKN100=

USA.gov is the U.S. government's official web portal to all federal, state and local government web resources and services.